sensor_id;sensor_type;location;lat;lon;timestamp;P1;durP1;ratioP1;P2;durP2;ratioP2
5821;SDS011;2937;48.562;8.022;2023-05-28T00:00:29;14.00;;;8.73;;
5821;SDS011;2937;48.562;8.022;2023-05-28T00:05:22;17.50;;;9.17;;
5821;SDS011;2937;48.562;8.022;2023-05-28T00:10:15;13.93;;;9.50;;
5821;SDS011;2937;48.562;8.022;2023-05-28T00:15:09;15.43;;;9.00;;
5821;SDS011;2937;48.562;8.022;2023-05-28T00:20:02;23.73;;;9.23;;
5821;SDS011;2937;48.562;8.022;2023-05-28T00:24:58;12.23;;;7.20;;
5821;SDS011;2937;48.562;8.022;2023-05-28T00:29:51;15.20;;;8.67;;
5821;SDS011;2937;48.562;8.022;2023-05-28T00:34:45;16.17;;;8.37;;
5821;SDS011;2937;48.562;8.022;2023-05-28T00:39:38;16.70;;;8.67;;
5821;SDS011;2937;48.562;8.022;2023-05-28T00:44:31;14.60;;;8.00;;
5821;SDS011;2937;48.562;8.022;2023-05-28T00:49:24;14.30;;;8.23;;
5821;SDS011;2937;48.562;8.022;2023-05-28T00:54:19;12.57;;;8.90;;
5821;SDS011;2937;48.562;8.022;2023-05-28T00:59:11;14.70;;;8.23;;
5821;SDS011;2937;48.562;8.022;2023-05-28T01:04:04;14.43;;;7.77;;
5821;SDS011;2937;48.562;8.022;2023-05-28T01:08:57;14.20;;;8.50;;
5821;SDS011;2937;48.562;8.022;2023-05-28T01:13:51;17.00;;;8.47;;
5821;SDS011;2937;48.562;8.022;2023-05-28T01:18:45;13.90;;;8.73;;
5821;SDS011;2937;48.562;8.022;2023-05-28T01:23:39;15.40;;;8.40;;
5821;SDS011;2937;48.562;8.022;2023-05-28T01:28:32;15.00;;;8.67;;
5821;SDS011;2937;48.562;8.022;2023-05-28T01:33:25;15.10;;;9.50;;
5821;SDS011;2937;48.562;8.022;2023-05-28T01:38:18;16.23;;;8.93;;
5821;SDS011;2937;48.562;8.022;2023-05-28T01:43:16;16.93;;;10.70;;
5821;SDS011;2937;48.562;8.022;2023-05-28T01:48:09;18.10;;;10.00;;
5821;SDS011;2937;48.562;8.022;2023-05-28T01:53:02;14.80;;;10.27;;
5821;SDS011;2937;48.562;8.022;2023-05-28T01:57:55;16.23;;;9.80;;
5821;SDS011;2937;48.562;8.022;2023-05-28T02:02:49;15.40;;;10.53;;
5821;SDS011;2937;48.562;8.022;2023-05-28T02:07:44;18.87;;;9.93;;
5821;SDS011;2937;48.562;8.022;2023-05-28T02:12:37;18.40;;;10.90;;
5821;SDS011;2937;48.562;8.022;2023-05-28T02:17:30;19.13;;;10.00;;
5821;SDS011;2937;48.562;8.022;2023-05-28T02:22:24;22.00;;;10.20;;
5821;SDS011;2937;48.562;8.022;2023-05-28T02:27:18;22.93;;;11.10;;
5821;SDS011;2937;48.562;8.022;2023-05-28T02:32:11;20.80;;;10.80;;
5821;SDS011;2937;48.562;8.022;2023-05-28T02:37:05;22.83;;;12.77;;
5821;SDS011;2937;48.562;8.022;2023-05-28T02:41:59;21.37;;;13.23;;
5821;SDS011;2937;48.562;8.022;2023-05-28T02:46:52;23.83;;;14.43;;
5821;SDS011;2937;48.562;8.022;2023-05-28T02:51:45;21.77;;;13.70;;
5821;SDS011;2937;48.562;8.022;2023-05-28T02:57:05;26.00;;;13.87;;
5821;SDS011;2937;48.562;8.022;2023-05-28T03:01:58;25.50;;;12.27;;
5821;SDS011;2937;48.562;8.022;2023-05-28T03:06:51;20.87;;;12.03;;
5821;SDS011;2937;48.562;8.022;2023-05-28T03:11:44;19.13;;;12.53;;
5821;SDS011;2937;48.562;8.022;2023-05-28T03:16:38;22.53;;;11.77;;
5821;SDS011;2937;48.562;8.022;2023-05-28T03:21:40;20.03;;;11.37;;
5821;SDS011;2937;48.562;8.022;2023-05-28T03:26:34;17.60;;;11.00;;
5821;SDS011;2937;48.562;8.022;2023-05-28T03:31:28;17.17;;;11.80;;
5821;SDS011;2937;48.562;8.022;2023-05-28T03:36:25;18.97;;;11.97;;
5821;SDS011;2937;48.562;8.022;2023-05-28T03:41:18;19.53;;;12.90;;
5821;SDS011;2937;48.562;8.022;2023-05-28T03:46:12;19.70;;;13.00;;
5821;SDS011;2937;48.562;8.022;2023-05-28T03:51:05;24.53;;;12.43;;
5821;SDS011;2937;48.562;8.022;2023-05-28T03:55:59;26.33;;;14.37;;
5821;SDS011;2937;48.562;8.022;2023-05-28T04:00:53;23.23;;;13.70;;
5821;SDS011;2937;48.562;8.022;2023-05-28T04:05:46;22.17;;;13.43;;
5821;SDS011;2937;48.562;8.022;2023-05-28T04:10:39;19.67;;;11.80;;
5821;SDS011;2937;48.562;8.022;2023-05-28T04:15:33;18.63;;;11.20;;
5821;SDS011;2937;48.562;8.022;2023-05-28T04:20:26;15.23;;;10.13;;
5821;SDS011;2937;48.562;8.022;2023-05-28T04:25:19;14.97;;;10.03;;
5821;SDS011;2937;48.562;8.022;2023-05-28T04:30:12;18.90;;;9.90;;
5821;SDS011;2937;48.562;8.022;2023-05-28T04:35:07;14.43;;;9.23;;
5821;SDS011;2937;48.562;8.022;2023-05-28T04:40:00;14.90;;;9.37;;
5821;SDS011;2937;48.562;8.022;2023-05-28T04:44:53;15.07;;;8.80;;
5821;SDS011;2937;48.562;8.022;2023-05-28T04:49:48;16.33;;;9.10;;
5821;SDS011;2937;48.562;8.022;2023-05-28T04:54:43;13.37;;;8.17;;
5821;SDS011;2937;48.562;8.022;2023-05-28T04:59:36;11.90;;;7.27;;
5821;SDS011;2937;48.562;8.022;2023-05-28T05:04:29;16.77;;;8.10;;
5821;SDS011;2937;48.562;8.022;2023-05-28T05:09:22;19.10;;;8.10;;
5821;SDS011;2937;48.562;8.022;2023-05-28T05:14:16;9.30;;;6.77;;
5821;SDS011;2937;48.562;8.022;2023-05-28T05:19:12;13.37;;;7.50;;
5821;SDS011;2937;48.562;8.022;2023-05-28T05:24:05;11.30;;;7.03;;
5821;SDS011;2937;48.562;8.022;2023-05-28T05:28:58;10.63;;;6.80;;
5821;SDS011;2937;48.562;8.022;2023-05-28T05:33:52;19.30;;;7.77;;
5821;SDS011;2937;48.562;8.022;2023-05-28T05:39:02;12.23;;;7.40;;
5821;SDS011;2937;48.562;8.022;2023-05-28T05:44:23;12.33;;;7.67;;
5821;SDS011;2937;48.562;8.022;2023-05-28T05:49:17;11.30;;;7.53;;
5821;SDS011;2937;48.562;8.022;2023-05-28T05:54:10;11.20;;;7.17;;
5821;SDS011;2937;48.562;8.022;2023-05-28T05:59:03;11.30;;;7.67;;
5821;SDS011;2937;48.562;8.022;2023-05-28T06:03:57;14.50;;;7.50;;
5821;SDS011;2937;48.562;8.022;2023-05-28T06:09:17;10.77;;;7.10;;
5821;SDS011;2937;48.562;8.022;2023-05-28T06:14:16;11.20;;;7.50;;
5821;SDS011;2937;48.562;8.022;2023-05-28T06:19:09;46.83;;;9.30;;
5821;SDS011;2937;48.562;8.022;2023-05-28T06:24:01;10.53;;;7.47;;
5821;SDS011;2937;48.562;8.022;2023-05-28T06:28:56;15.10;;;7.83;;
5821;SDS011;2937;48.562;8.022;2023-05-28T06:33:50;17.67;;;7.30;;
5821;SDS011;2937;48.562;8.022;2023-05-28T06:38:43;13.17;;;7.37;;
5821;SDS011;2937;48.562;8.022;2023-05-28T06:43:37;9.47;;;6.73;;
5821;SDS011;2937;48.562;8.022;2023-05-28T06:48:36;9.73;;;6.80;;
5821;SDS011;2937;48.562;8.022;2023-05-28T06:53:28;12.67;;;7.33;;
5821;SDS011;2937;48.562;8.022;2023-05-28T06:58:21;12.60;;;7.90;;
5821;SDS011;2937;48.562;8.022;2023-05-28T07:03:41;10.03;;;6.77;;
5821;SDS011;2937;48.562;8.022;2023-05-28T07:08:56;11.67;;;7.03;;
5821;SDS011;2937;48.562;8.022;2023-05-28T07:13:49;15.73;;;6.90;;
5821;SDS011;2937;48.562;8.022;2023-05-28T07:18:45;14.37;;;7.60;;
5821;SDS011;2937;48.562;8.022;2023-05-28T07:23:38;15.53;;;7.53;;
5821;SDS011;2937;48.562;8.022;2023-05-28T07:28:32;10.33;;;6.90;;
5821;SDS011;2937;48.562;8.022;2023-05-28T07:33:24;11.50;;;6.80;;
5821;SDS011;2937;48.562;8.022;2023-05-28T07:38:18;12.10;;;7.20;;
5821;SDS011;2937;48.562;8.022;2023-05-28T07:43:15;10.40;;;7.70;;
5821;SDS011;2937;48.562;8.022;2023-05-28T07:48:07;10.20;;;6.70;;
5821;SDS011;2937;48.562;8.022;2023-05-28T07:53:07;11.00;;;6.97;;
5821;SDS011;2937;48.562;8.022;2023-05-28T07:58:02;15.93;;;6.43;;
5821;SDS011;2937;48.562;8.022;2023-05-28T08:02:56;13.10;;;7.00;;
5821;SDS011;2937;48.562;8.022;2023-05-28T08:08:00;14.60;;;6.57;;
5821;SDS011;2937;48.562;8.022;2023-05-28T08:12:52;10.30;;;6.30;;
5821;SDS011;2937;48.562;8.022;2023-05-28T08:17:49;11.53;;;6.50;;
5821;SDS011;2937;48.562;8.022;2023-05-28T08:22:44;10.17;;;6.60;;
5821;SDS011;2937;48.562;8.022;2023-05-28T08:27:37;10.53;;;6.33;;
5821;SDS011;2937;48.562;8.022;2023-05-28T08:32:30;11.93;;;6.20;;
5821;SDS011;2937;48.562;8.022;2023-05-28T08:37:24;11.37;;;6.00;;
5821;SDS011;2937;48.562;8.022;2023-05-28T08:42:40;12.83;;;7.10;;
5821;SDS011;2937;48.562;8.022;2023-05-28T08:47:33;12.70;;;6.20;;
5821;SDS011;2937;48.562;8.022;2023-05-28T08:52:33;8.63;;;6.10;;
5821;SDS011;2937;48.562;8.022;2023-05-28T08:57:27;10.70;;;6.57;;
5821;SDS011;2937;48.562;8.022;2023-05-28T09:02:24;10.73;;;5.97;;
5821;SDS011;2937;48.562;8.022;2023-05-28T09:07:18;12.30;;;7.23;;
5821;SDS011;2937;48.562;8.022;2023-05-28T09:12:21;10.00;;;6.07;;
5821;SDS011;2937;48.562;8.022;2023-05-28T09:17:31;11.13;;;6.20;;
5821;SDS011;2937;48.562;8.022;2023-05-28T09:22:26;11.10;;;6.50;;
5821;SDS011;2937;48.562;8.022;2023-05-28T09:27:30;9.93;;;6.20;;
5821;SDS011;2937;48.562;8.022;2023-05-28T09:32:23;11.10;;;6.83;;
5821;SDS011;2937;48.562;8.022;2023-05-28T09:37:17;13.70;;;6.80;;
5821;SDS011;2937;48.562;8.022;2023-05-28T09:42:10;13.40;;;6.53;;
5821;SDS011;2937;48.562;8.022;2023-05-28T09:47:12;10.47;;;5.90;;
5821;SDS011;2937;48.562;8.022;2023-05-28T09:52:06;9.60;;;6.60;;
5821;SDS011;2937;48.562;8.022;2023-05-28T09:57:01;12.10;;;7.77;;
5821;SDS011;2937;48.562;8.022;2023-05-28T10:01:56;14.63;;;6.70;;
5821;SDS011;2937;48.562;8.022;2023-05-28T10:06:51;16.00;;;6.80;;
5821;SDS011;2937;48.562;8.022;2023-05-28T10:11:47;11.87;;;6.23;;
5821;SDS011;2937;48.562;8.022;2023-05-28T10:16:42;12.53;;;6.93;;
5821;SDS011;2937;48.562;8.022;2023-05-28T10:21:35;10.23;;;6.80;;
5821;SDS011;2937;48.562;8.022;2023-05-28T10:26:29;8.50;;;6.47;;
5821;SDS011;2937;48.562;8.022;2023-05-28T10:31:22;10.90;;;6.20;;
5821;SDS011;2937;48.562;8.022;2023-05-28T10:36:15;11.80;;;5.93;;
5821;SDS011;2937;48.562;8.022;2023-05-28T10:41:08;10.67;;;5.80;;
5821;SDS011;2937;48.562;8.022;2023-05-28T10:46:02;7.77;;;5.80;;
5821;SDS011;2937;48.562;8.022;2023-05-28T10:50:55;11.07;;;6.50;;
5821;SDS011;2937;48.562;8.022;2023-05-28T10:55:48;7.43;;;5.87;;
5821;SDS011;2937;48.562;8.022;2023-05-28T11:00:42;10.50;;;6.93;;
5821;SDS011;2937;48.562;8.022;2023-05-28T11:05:36;11.93;;;6.00;;
5821;SDS011;2937;48.562;8.022;2023-05-28T11:10:29;8.47;;;6.20;;
5821;SDS011;2937;48.562;8.022;2023-05-28T11:15:23;12.13;;;5.70;;
5821;SDS011;2937;48.562;8.022;2023-05-28T11:20:16;10.53;;;5.67;;
5821;SDS011;2937;48.562;8.022;2023-05-28T11:25:11;12.10;;;5.80;;
5821;SDS011;2937;48.562;8.022;2023-05-28T11:30:06;7.77;;;5.10;;
5821;SDS011;2937;48.562;8.022;2023-05-28T11:34:59;7.37;;;5.33;;
5821;SDS011;2937;48.562;8.022;2023-05-28T11:39:55;9.90;;;6.57;;
5821;SDS011;2937;48.562;8.022;2023-05-28T11:44:50;11.63;;;5.77;;
5821;SDS011;2937;48.562;8.022;2023-05-28T11:49:43;10.20;;;5.80;;
5821;SDS011;2937;48.562;8.022;2023-05-28T11:54:36;7.90;;;5.90;;
5821;SDS011;2937;48.562;8.022;2023-05-28T11:59:29;10.90;;;5.60;;
5821;SDS011;2937;48.562;8.022;2023-05-28T12:04:23;9.37;;;5.90;;
5821;SDS011;2937;48.562;8.022;2023-05-28T12:09:16;11.40;;;6.47;;
5821;SDS011;2937;48.562;8.022;2023-05-28T12:14:09;10.07;;;6.00;;
5821;SDS011;2937;48.562;8.022;2023-05-28T12:19:02;6.80;;;5.33;;
5821;SDS011;2937;48.562;8.022;2023-05-28T12:24:03;9.03;;;6.07;;
5821;SDS011;2937;48.562;8.022;2023-05-28T12:28:58;9.80;;;5.80;;
5821;SDS011;2937;48.562;8.022;2023-05-28T12:33:51;6.90;;;5.47;;
5821;SDS011;2937;48.562;8.022;2023-05-28T12:38:44;9.40;;;5.63;;
5821;SDS011;2937;48.562;8.022;2023-05-28T12:43:38;7.20;;;5.40;;
5821;SDS011;2937;48.562;8.022;2023-05-28T12:48:30;8.30;;;5.17;;
5821;SDS011;2937;48.562;8.022;2023-05-28T12:53:23;7.43;;;5.57;;
5821;SDS011;2937;48.562;8.022;2023-05-28T12:58:16;9.33;;;5.93;;
5821;SDS011;2937;48.562;8.022;2023-05-28T13:03:10;8.23;;;5.13;;
5821;SDS011;2937;48.562;8.022;2023-05-28T13:08:03;8.00;;;5.30;;
5821;SDS011;2937;48.562;8.022;2023-05-28T13:12:55;8.10;;;5.17;;
5821;SDS011;2937;48.562;8.022;2023-05-28T13:17:48;7.17;;;5.10;;
5821;SDS011;2937;48.562;8.022;2023-05-28T13:22:42;9.60;;;5.33;;
5821;SDS011;2937;48.562;8.022;2023-05-28T13:27:35;9.10;;;5.93;;
5821;SDS011;2937;48.562;8.022;2023-05-28T13:32:28;10.00;;;5.50;;
5821;SDS011;2937;48.562;8.022;2023-05-28T13:37:20;8.63;;;5.57;;
5821;SDS011;2937;48.562;8.022;2023-05-28T13:42:14;9.70;;;5.40;;
5821;SDS011;2937;48.562;8.022;2023-05-28T13:47:10;16.40;;;4.80;;
5821;SDS011;2937;48.562;8.022;2023-05-28T13:52:03;7.20;;;5.27;;
5821;SDS011;2937;48.562;8.022;2023-05-28T13:56:56;6.70;;;4.80;;
5821;SDS011;2937;48.562;8.022;2023-05-28T14:01:50;7.43;;;5.47;;
5821;SDS011;2937;48.562;8.022;2023-05-28T14:06:43;11.27;;;4.70;;
5821;SDS011;2937;48.562;8.022;2023-05-28T14:11:36;7.90;;;4.80;;
5821;SDS011;2937;48.562;8.022;2023-05-28T14:16:50;11.03;;;5.50;;
5821;SDS011;2937;48.562;8.022;2023-05-28T14:21:43;9.13;;;5.53;;
5821;SDS011;2937;48.562;8.022;2023-05-28T14:26:35;8.60;;;5.43;;
5821;SDS011;2937;48.562;8.022;2023-05-28T14:31:28;8.80;;;5.20;;
5821;SDS011;2937;48.562;8.022;2023-05-28T14:36:22;7.60;;;5.70;;
5821;SDS011;2937;48.562;8.022;2023-05-28T14:41:15;10.93;;;5.53;;
5821;SDS011;2937;48.562;8.022;2023-05-28T14:46:07;9.17;;;5.50;;
5821;SDS011;2937;48.562;8.022;2023-05-28T14:51:00;12.93;;;5.53;;
5821;SDS011;2937;48.562;8.022;2023-05-28T14:55:55;8.93;;;5.40;;
5821;SDS011;2937;48.562;8.022;2023-05-28T15:00:47;8.53;;;5.00;;
5821;SDS011;2937;48.562;8.022;2023-05-28T15:05:40;7.90;;;5.43;;
5821;SDS011;2937;48.562;8.022;2023-05-28T15:10:33;5.90;;;4.63;;
5821;SDS011;2937;48.562;8.022;2023-05-28T15:15:27;7.57;;;4.87;;
5821;SDS011;2937;48.562;8.022;2023-05-28T15:20:20;7.63;;;4.47;;
5821;SDS011;2937;48.562;8.022;2023-05-28T15:25:13;9.53;;;5.37;;
5821;SDS011;2937;48.562;8.022;2023-05-28T15:30:06;9.53;;;5.67;;
5821;SDS011;2937;48.562;8.022;2023-05-28T15:35:00;9.63;;;5.00;;
5821;SDS011;2937;48.562;8.022;2023-05-28T15:39:55;7.60;;;5.70;;
5821;SDS011;2937;48.562;8.022;2023-05-28T15:44:48;9.47;;;5.83;;
5821;SDS011;2937;48.562;8.022;2023-05-28T15:49:41;9.37;;;5.20;;
5821;SDS011;2937;48.562;8.022;2023-05-28T15:54:35;9.77;;;5.50;;
5821;SDS011;2937;48.562;8.022;2023-05-28T15:59:28;9.00;;;5.30;;
5821;SDS011;2937;48.562;8.022;2023-05-28T16:04:21;8.03;;;4.90;;
5821;SDS011;2937;48.562;8.022;2023-05-28T16:09:14;9.20;;;4.87;;
5821;SDS011;2937;48.562;8.022;2023-05-28T16:14:08;8.17;;;5.77;;
5821;SDS011;2937;48.562;8.022;2023-05-28T16:19:01;8.70;;;5.57;;
5821;SDS011;2937;48.562;8.022;2023-05-28T16:23:54;7.90;;;5.60;;
5821;SDS011;2937;48.562;8.022;2023-05-28T16:28:47;7.33;;;5.27;;
5821;SDS011;2937;48.562;8.022;2023-05-28T16:33:41;9.17;;;5.90;;
5821;SDS011;2937;48.562;8.022;2023-05-28T16:38:34;9.30;;;5.73;;
5821;SDS011;2937;48.562;8.022;2023-05-28T16:43:27;9.03;;;5.30;;
5821;SDS011;2937;48.562;8.022;2023-05-28T16:48:20;9.63;;;5.37;;
5821;SDS011;2937;48.562;8.022;2023-05-28T16:53:14;6.73;;;5.43;;
5821;SDS011;2937;48.562;8.022;2023-05-28T16:58:09;8.90;;;5.47;;
5821;SDS011;2937;48.562;8.022;2023-05-28T17:03:01;7.67;;;5.40;;
5821;SDS011;2937;48.562;8.022;2023-05-28T17:07:55;12.23;;;5.30;;
5821;SDS011;2937;48.562;8.022;2023-05-28T17:12:49;8.53;;;5.70;;
5821;SDS011;2937;48.562;8.022;2023-05-28T17:17:41;7.43;;;4.67;;
5821;SDS011;2937;48.562;8.022;2023-05-28T17:22:34;8.87;;;5.90;;
5821;SDS011;2937;48.562;8.022;2023-05-28T17:27:27;7.80;;;5.70;;
5821;SDS011;2937;48.562;8.022;2023-05-28T17:32:21;9.53;;;5.90;;
5821;SDS011;2937;48.562;8.022;2023-05-28T17:37:13;10.03;;;5.93;;
5821;SDS011;2937;48.562;8.022;2023-05-28T17:42:06;8.77;;;5.87;;
5821;SDS011;2937;48.562;8.022;2023-05-28T17:46:59;7.83;;;5.57;;
5821;SDS011;2937;48.562;8.022;2023-05-28T17:51:53;8.43;;;5.80;;
5821;SDS011;2937;48.562;8.022;2023-05-28T17:56:46;9.30;;;6.47;;
5821;SDS011;2937;48.562;8.022;2023-05-28T18:01:38;8.30;;;5.77;;
5821;SDS011;2937;48.562;8.022;2023-05-28T18:06:32;11.37;;;6.10;;
5821;SDS011;2937;48.562;8.022;2023-05-28T18:11:27;9.90;;;5.83;;
5821;SDS011;2937;48.562;8.022;2023-05-28T18:16:20;11.40;;;6.53;;
5821;SDS011;2937;48.562;8.022;2023-05-28T18:21:13;9.10;;;6.07;;
5821;SDS011;2937;48.562;8.022;2023-05-28T18:26:05;9.87;;;6.33;;
5821;SDS011;2937;48.562;8.022;2023-05-28T18:30:59;10.30;;;6.90;;
5821;SDS011;2937;48.562;8.022;2023-05-28T18:35:52;12.23;;;6.70;;
5821;SDS011;2937;48.562;8.022;2023-05-28T18:40:45;10.60;;;6.57;;
5821;SDS011;2937;48.562;8.022;2023-05-28T18:45:38;12.40;;;6.60;;
5821;SDS011;2937;48.562;8.022;2023-05-28T18:50:32;9.93;;;6.87;;
5821;SDS011;2937;48.562;8.022;2023-05-28T18:55:25;11.20;;;6.80;;
5821;SDS011;2937;48.562;8.022;2023-05-28T19:00:18;11.83;;;7.00;;
5821;SDS011;2937;48.562;8.022;2023-05-28T19:05:10;12.10;;;7.27;;
5821;SDS011;2937;48.562;8.022;2023-05-28T19:10:05;14.53;;;6.83;;
5821;SDS011;2937;48.562;8.022;2023-05-28T19:14:58;11.00;;;7.10;;
5821;SDS011;2937;48.562;8.022;2023-05-28T19:19:54;10.63;;;6.47;;
5821;SDS011;2937;48.562;8.022;2023-05-28T19:24:47;13.97;;;7.20;;
5821;SDS011;2937;48.562;8.022;2023-05-28T19:29:42;11.30;;;7.60;;
5821;SDS011;2937;48.562;8.022;2023-05-28T19:34:34;11.00;;;6.80;;
5821;SDS011;2937;48.562;8.022;2023-05-28T19:39:27;12.97;;;7.30;;
5821;SDS011;2937;48.562;8.022;2023-05-28T19:44:20;9.77;;;6.67;;
5821;SDS011;2937;48.562;8.022;2023-05-28T19:49:14;14.77;;;7.00;;
5821;SDS011;2937;48.562;8.022;2023-05-28T19:54:09;13.40;;;7.60;;
5821;SDS011;2937;48.562;8.022;2023-05-28T19:59:01;11.10;;;7.33;;
5821;SDS011;2937;48.562;8.022;2023-05-28T20:03:54;12.23;;;7.20;;
5821;SDS011;2937;48.562;8.022;2023-05-28T20:08:48;9.70;;;6.60;;
5821;SDS011;2937;48.562;8.022;2023-05-28T20:13:41;13.13;;;7.53;;
5821;SDS011;2937;48.562;8.022;2023-05-28T20:18:34;10.63;;;6.80;;
5821;SDS011;2937;48.562;8.022;2023-05-28T20:23:27;13.10;;;7.17;;
5821;SDS011;2937;48.562;8.022;2023-05-28T20:28:21;9.87;;;6.73;;
5821;SDS011;2937;48.562;8.022;2023-05-28T20:33:14;13.37;;;7.63;;
5821;SDS011;2937;48.562;8.022;2023-05-28T20:38:07;12.70;;;7.40;;
5821;SDS011;2937;48.562;8.022;2023-05-28T20:42:59;9.73;;;7.30;;
5821;SDS011;2937;48.562;8.022;2023-05-28T20:47:56;10.20;;;6.80;;
5821;SDS011;2937;48.562;8.022;2023-05-28T20:52:49;14.57;;;8.50;;
5821;SDS011;2937;48.562;8.022;2023-05-28T20:57:45;15.13;;;7.37;;
5821;SDS011;2937;48.562;8.022;2023-05-28T21:02:40;15.23;;;7.07;;
5821;SDS011;2937;48.562;8.022;2023-05-28T21:07:34;14.77;;;7.60;;
5821;SDS011;2937;48.562;8.022;2023-05-28T21:12:27;12.23;;;7.57;;
5821;SDS011;2937;48.562;8.022;2023-05-28T21:17:19;13.13;;;7.47;;
5821;SDS011;2937;48.562;8.022;2023-05-28T21:22:12;11.03;;;8.20;;
5821;SDS011;2937;48.562;8.022;2023-05-28T21:27:06;10.50;;;7.10;;
5821;SDS011;2937;48.562;8.022;2023-05-28T21:31:59;12.30;;;8.10;;
5821;SDS011;2937;48.562;8.022;2023-05-28T21:36:52;16.60;;;8.10;;
5821;SDS011;2937;48.562;8.022;2023-05-28T21:41:45;18.60;;;7.87;;
5821;SDS011;2937;48.562;8.022;2023-05-28T21:46:39;12.40;;;8.40;;
5821;SDS011;2937;48.562;8.022;2023-05-28T21:51:32;10.90;;;7.77;;
5821;SDS011;2937;48.562;8.022;2023-05-28T21:56:25;15.50;;;7.90;;
5821;SDS011;2937;48.562;8.022;2023-05-28T22:01:18;13.37;;;8.60;;
5821;SDS011;2937;48.562;8.022;2023-05-28T22:06:12;12.13;;;8.40;;
5821;SDS011;2937;48.562;8.022;2023-05-28T22:11:05;12.60;;;8.93;;
5821;SDS011;2937;48.562;8.022;2023-05-28T22:15:58;18.07;;;8.87;;
5821;SDS011;2937;48.562;8.022;2023-05-28T22:20:51;12.30;;;8.23;;
5821;SDS011;2937;48.562;8.022;2023-05-28T22:25:45;12.77;;;8.13;;
5821;SDS011;2937;48.562;8.022;2023-05-28T22:30:38;11.83;;;8.13;;
5821;SDS011;2937;48.562;8.022;2023-05-28T22:35:31;15.03;;;8.93;;
5821;SDS011;2937;48.562;8.022;2023-05-28T22:40:24;14.70;;;8.90;;
5821;SDS011;2937;48.562;8.022;2023-05-28T22:45:19;12.27;;;8.33;;
5821;SDS011;2937;48.562;8.022;2023-05-28T22:50:12;13.17;;;8.60;;
5821;SDS011;2937;48.562;8.022;2023-05-28T22:55:08;14.73;;;8.50;;
5821;SDS011;2937;48.562;8.022;2023-05-28T23:00:01;12.70;;;7.70;;
5821;SDS011;2937;48.562;8.022;2023-05-28T23:04:56;15.10;;;8.43;;
5821;SDS011;2937;48.562;8.022;2023-05-28T23:09:50;12.33;;;8.30;;
5821;SDS011;2937;48.562;8.022;2023-05-28T23:14:42;14.77;;;8.63;;
5821;SDS011;2937;48.562;8.022;2023-05-28T23:19:35;13.67;;;8.00;;
5821;SDS011;2937;48.562;8.022;2023-05-28T23:24:29;13.33;;;8.53;;
5821;SDS011;2937;48.562;8.022;2023-05-28T23:29:21;10.97;;;7.37;;
5821;SDS011;2937;48.562;8.022;2023-05-28T23:34:15;13.87;;;8.20;;
5821;SDS011;2937;48.562;8.022;2023-05-28T23:39:09;15.60;;;8.73;;
5821;SDS011;2937;48.562;8.022;2023-05-28T23:44:04;15.00;;;7.90;;
5821;SDS011;2937;48.562;8.022;2023-05-28T23:48:56;11.07;;;7.30;;
5821;SDS011;2937;48.562;8.022;2023-05-28T23:53:49;11.30;;;7.50;;
5821;SDS011;2937;48.562;8.022;2023-05-28T23:58:42;10.00;;;6.90;;
